Acton, Indiana
Current Conditions -  °F | °C
As of 2:53 AM on Monday 22 Dec 2014 (Local Time) from KGEZ Reporting Station
Clear Clear  
Wind Chill: 23°   Ceiling: Unl
Heat Index: 30°   Visibility: 7mi
Dew Point: 25°   Wind: 7mph
Humidity: 82%   Direction: 90°E
Pressure: 30.02"   Gusts: NA
Location:  39.6613°N, 85.9949°W
Report Text: KGEZ 220753Z AUTO 09006KT 7SM CLR M01/M04 A3002 RMK AO2 SLP172 T10111039
Loading
Personal Weather Stations






























Interactive Weather Map New forecast layout! Learn more

10-Day Weather Forecast

Advertisements
Track Severe Weather on mobile